Hlavní strana
METAR-TAF:

METAR-TAF

Letiště :

Abraham Lincoln Capital Airport

Springfield, Illinois, Spojené státy americké

zeměpisná šířka: 39-50-43N, zeměpisná délka: 089-41-02W, výška: 182 m

Aktuální stav počasí

Zpráva byla vytvořena před 24 minutami, v 00:52 UTC
Severozápadní vítr 5 kt
Teplota 23°C
Vlhkost vzduchu 83%
Tlak 1017 hPa
Viditelnost: 14.5 km
Jasno

METAR: KSPI 220052Z 31005KT 9SM CLR 23/20 A3002 RMK AO2 SLP162 T02280200

Čas: 20:16 (01:16 UTC)

Předpověď počasí

Zpráva byla vytvořena před 1 hodinou a 44 minutami, v 23:32 UTC
Předpověď platná od 22 v 00 UTC do 22 v 24 UTC
Severozápadní vítr 6 kt
Viditelnost: 10 km
Polojasno ve výšce 20000 ft
Od 22 v 0900 UTC
Severoseverozápadní vítr 7 kt
Viditelnost: 10 km
Polojasno ve výšce 4000 ft
Od 22 v 1300 UTC
Severoseverozápadní vítr 8 kt
Viditelnost: 10 km
Jasno

TAF: KSPI 212332Z 2200/2224 32006KT P6SM SCT200 FM220900 33007KT P6SM SCT040 FM221300 34008KT P6SM SKC

Stav a předpovědi počasí z více než 4 000 letišť (zprávy METAR a TAF).

Červené a žluté tečky na mapě představují dostupné meteorologické stanice.

Když kurzor umístíte na tečku, zobrazí se název stanice.

Pak kliknutím zobrazíte stav a předpověď počasí.

Chcete-li změnit mapu, kliknutím na zelené tlačítko se znaménkem +mapu přiblížíte, kliknutím na zelené tlačítko se znaménkem – mapu oddálíte a kliknutím na zelené šipky přejdete na sousední mapy.


METAR-TAF: